Kakioka, Japan

12:42 PM JST on September 01, 2016 (GMT +0900)
国道355号線 | | Change Station

Elev 82 ft 36.21 °N, 140.28 °E | Updated 27 seconds ago

Scattered Clouds
Scattered Clouds
88.3 °F
Feels Like 103 °F
N
4.3
Wind Variable Wind from SE
Gusts 8.1 mph

Today
High -- | Low -- °F
--% Chance of Precip.
Yesterday
High -- | Low -- °F
Precip. -- in
Pressure 29.77 in
Visibility 6.2 miles
Clouds Few 3000 ft
Scattered Clouds 25000 ft
Heat Index 103 °F
Dew Point 79 °F
Humidity 73%
Rainfall 0.00 in
Snow Depth Not available.
5:10 AM 6:07 PM
Waning Crescent, 0% visible
METAR RJAH 010300Z 20006KT 140V250 9999 FEW030 SCT250 29/18 Q1008
Pressure 29.77 in
Visibility 6.2 miles
Clouds Few 3000 ft
Scattered Clouds 25000 ft
Heat Index 103 °F
Dew Point 79 °F
Humidity 73%
Rainfall 0.00 in
Snow Depth Not available.
5:10 AM 6:07 PM
Waning Crescent, 0% visible
METAR RJAH 010300Z 20006KT 140V250 9999 FEW030 SCT250 29/18 Q1008

10-Day Weather Forecast

No radar image for this location.
×

Almanac

Astronomy

Sep. 01, 2016 Rise Set
Actual Time
Civil Twilight
Nautical Twilight
Astronomical Twilight
Moon
Length of Visible Light
Length of Day
Tomorrow will be .
, % of the Moon is Illuminated

Today's Extremes

Country Highs Country Lows

Community

WunderPhotos

Upload Photos

1,936,291 photos uploaded!

WunderBlog® & News

Nearby

Air Quality

  Air Quality AQ Index Pollutant
Not available.

Snow Depth

Station Depth Elevation

Earthquake Activity

City Distance Mag. Time & Date
Minimum magnitude displayed is 2.5.

Coastal Water Temperatures

Place Temperature

Stations

Nearby Weather Stations

Station Location Temp. Windchill Dew Point Humidity Wind Precip. Elev Updated Type